sensor_id;sensor_type;location;lat;lon;timestamp;pressure;altitude;pressure_sealevel;temperature;humidity
64876;BME280;51369;49.862;9.908;2023-03-20T00:00:30;98479.09;;;9.84;83.29
64876;BME280;51369;49.862;9.908;2023-03-20T00:02:56;98475.56;;;9.82;82.45
64876;BME280;51369;49.862;9.908;2023-03-20T00:05:23;98472.09;;;9.78;83.58
64876;BME280;51369;49.862;9.908;2023-03-20T00:07:49;98477.63;;;9.75;83.36
64876;BME280;51369;49.862;9.908;2023-03-20T00:10:17;98487.63;;;9.71;82.32
64876;BME280;51369;49.862;9.908;2023-03-20T00:12:44;98477.91;;;9.67;83.14
64876;BME280;51369;49.862;9.908;2023-03-20T00:15:26;98487.09;;;9.62;82.70
64876;BME280;51369;49.862;9.908;2023-03-20T00:17:52;98481.75;;;9.60;83.12
64876;BME280;51369;49.862;9.908;2023-03-20T00:20:18;98482.81;;;9.56;83.33
64876;BME280;51369;49.862;9.908;2023-03-20T00:22:44;98475.72;;;9.54;83.52
64876;BME280;51369;49.862;9.908;2023-03-20T00:25:15;98473.19;;;9.49;82.75
64876;BME280;51369;49.862;9.908;2023-03-20T00:27:41;98479.56;;;9.46;82.64
64876;BME280;51369;49.862;9.908;2023-03-20T00:32:49;98480.63;;;9.42;82.76
64876;BME280;51369;49.862;9.908;2023-03-20T00:35:41;98477.16;;;9.39;83.43
64876;BME280;51369;49.862;9.908;2023-03-20T00:38:07;98477.09;;;9.40;83.63
64876;BME280;51369;49.862;9.908;2023-03-20T00:40:33;98471.66;;;9.42;83.40
64876;BME280;51369;49.862;9.908;2023-03-20T00:43:01;98477.09;;;9.40;83.73
64876;BME280;51369;49.862;9.908;2023-03-20T00:45:29;98482.44;;;9.42;83.06
64876;BME280;51369;49.862;9.908;2023-03-20T00:47:56;98482.38;;;9.43;83.76
64876;BME280;51369;49.862;9.908;2023-03-20T00:50:25;98482.38;;;9.43;83.39
64876;BME280;51369;49.862;9.908;2023-03-20T00:52:52;98477.75;;;9.47;83.49
64876;BME280;51369;49.862;9.908;2023-03-20T00:55:20;98480.34;;;9.50;84.46
64876;BME280;51369;49.862;9.908;2023-03-20T00:57:53;98484.75;;;9.53;83.97
64876;BME280;51369;49.862;9.908;2023-03-20T01:00:41;98483.75;;;9.55;84.55
64876;BME280;51369;49.862;9.908;2023-03-20T01:03:18;98484.56;;;9.57;84.34
64876;BME280;51369;49.862;9.908;2023-03-20T01:05:47;98482.75;;;9.58;83.51
64876;BME280;51369;49.862;9.908;2023-03-20T01:08:21;98483.75;;;9.55;83.77
64876;BME280;51369;49.862;9.908;2023-03-20T01:10:55;98488.31;;;9.53;83.29
64876;BME280;51369;49.862;9.908;2023-03-20T01:13:23;98488.44;;;9.50;83.33
64876;BME280;51369;49.862;9.908;2023-03-20T01:15:50;98494.88;;;9.46;83.07
64876;BME280;51369;49.862;9.908;2023-03-20T01:18:18;98487.94;;;9.39;82.92
64876;BME280;51369;49.862;9.908;2023-03-20T01:20:44;98485.41;;;9.34;82.37
64876;BME280;51369;49.862;9.908;2023-03-20T01:23:11;98481.13;;;9.29;83.34
64876;BME280;51369;49.862;9.908;2023-03-20T01:25:37;98477.66;;;9.25;82.96
64876;BME280;51369;49.862;9.908;2023-03-20T01:28:20;98483.22;;;9.21;83.17
64876;BME280;51369;49.862;9.908;2023-03-20T01:30:46;98477.88;;;9.19;83.76
64876;BME280;51369;49.862;9.908;2023-03-20T01:33:14;98479.78;;;9.16;83.69
64876;BME280;51369;49.862;9.908;2023-03-20T01:35:41;98472.69;;;9.13;83.96
64876;BME280;51369;49.862;9.908;2023-03-20T01:38:21;98485.44;;;9.08;83.80
64876;BME280;51369;49.862;9.908;2023-03-20T01:41:00;98486.38;;;9.07;83.79
64876;BME280;51369;49.862;9.908;2023-03-20T01:43:30;98489.91;;;9.09;84.30
64876;BME280;51369;49.862;9.908;2023-03-20T01:46:01;98485.34;;;9.11;84.80
64876;BME280;51369;49.862;9.908;2023-03-20T01:51:22;98490.50;;;9.17;84.93
64876;BME280;51369;49.862;9.908;2023-03-20T01:53:53;98492.22;;;9.20;84.74
64876;BME280;51369;49.862;9.908;2023-03-20T01:56:20;98495.75;;;9.22;84.36
64876;BME280;51369;49.862;9.908;2023-03-20T01:59:02;98497.59;;;9.20;84.55
64876;BME280;51369;49.862;9.908;2023-03-20T02:01:29;98497.56;;;9.21;84.88
64876;BME280;51369;49.862;9.908;2023-03-20T02:03:55;98502.88;;;9.23;84.14
64876;BME280;51369;49.862;9.908;2023-03-20T02:06:45;98501.13;;;9.22;83.92
64876;BME280;51369;49.862;9.908;2023-03-20T02:09:22;98499.38;;;9.21;84.41
64876;BME280;51369;49.862;9.908;2023-03-20T02:11:47;98497.59;;;9.20;84.36
64876;BME280;51369;49.862;9.908;2023-03-20T02:14:16;98499.47;;;9.18;83.69
64876;BME280;51369;49.862;9.908;2023-03-20T02:16:51;98499.47;;;9.18;84.39
64876;BME280;51369;49.862;9.908;2023-03-20T02:30:43;98510.63;;;9.07;84.21
64876;BME280;51369;49.862;9.908;2023-03-20T02:39:31;98508.09;;;9.02;83.22
64876;BME280;51369;49.862;9.908;2023-03-20T02:41:47;98509.03;;;9.01;83.72
64876;BME280;51369;49.862;9.908;2023-03-20T02:44:23;98504.66;;;8.97;83.65
64876;BME280;51369;49.862;9.908;2023-03-20T02:47:41;98504.72;;;8.96;83.44
64876;BME280;51369;49.862;9.908;2023-03-20T02:58:22;98508.69;;;9.10;83.84
64876;BME280;51369;49.862;9.908;2023-03-20T03:01:07;98513.16;;;9.11;83.54
64876;BME280;51369;49.862;9.908;2023-03-20T03:03:41;98499.69;;;9.11;82.92
64876;BME280;51369;49.862;9.908;2023-03-20T03:06:13;98507.66;;;9.14;83.42
64876;BME280;51369;49.862;9.908;2023-03-20T03:08:44;98505.78;;;9.17;83.47
64876;BME280;51369;49.862;9.908;2023-03-20T03:11:12;98504.75;;;9.21;83.84
64876;BME280;51369;49.862;9.908;2023-03-20T03:13:42;98504.66;;;9.24;83.92
64876;BME280;51369;49.862;9.908;2023-03-20T03:16:14;98510.88;;;9.26;83.40
64876;BME280;51369;49.862;9.908;2023-03-20T03:18:42;98504.53;;;9.27;83.72
64876;BME280;51369;49.862;9.908;2023-03-20T03:21:11;98516.19;;;9.27;83.77
64876;BME280;51369;49.862;9.908;2023-03-20T03:23:44;98519.66;;;9.31;84.39
64876;BME280;51369;49.862;9.908;2023-03-20T03:26:21;98522.31;;;9.32;83.91
64876;BME280;51369;49.862;9.908;2023-03-20T03:28:51;98516.84;;;9.34;84.16
64876;BME280;51369;49.862;9.908;2023-03-20T03:31:19;98522.19;;;9.35;83.77
64876;BME280;51369;49.862;9.908;2023-03-20T03:33:51;98524.00;;;9.35;84.00
64876;BME280;51369;49.862;9.908;2023-03-20T03:45:01;98512.25;;;9.37;83.90
64876;BME280;51369;49.862;9.908;2023-03-20T03:48:06;98512.19;;;9.39;83.73
64876;BME280;51369;49.862;9.908;2023-03-20T03:50:28;98521.16;;;9.39;83.67
64876;BME280;51369;49.862;9.908;2023-03-20T03:53:01;98522.03;;;9.40;83.84
64876;BME280;51369;49.862;9.908;2023-03-20T03:55:34;98521.97;;;9.41;83.45
64876;BME280;51369;49.862;9.908;2023-03-20T04:00:51;98526.38;;;9.44;83.23
64876;BME280;51369;49.862;9.908;2023-03-20T04:03:20;98530.00;;;9.43;83.51
64876;BME280;51369;49.862;9.908;2023-03-20T04:05:48;98532.69;;;9.43;84.17
64876;BME280;51369;49.862;9.908;2023-03-20T04:08:16;98531.78;;;9.44;83.63
64876;BME280;51369;49.862;9.908;2023-03-20T04:10:41;98537.97;;;9.46;83.70
64876;BME280;51369;49.862;9.908;2023-03-20T04:13:07;98537.97;;;9.46;83.47
64876;BME280;51369;49.862;9.908;2023-03-20T04:15:33;98538.81;;;9.48;83.94
64876;BME280;51369;49.862;9.908;2023-03-20T04:17:58;98541.50;;;9.48;83.80
64876;BME280;51369;49.862;9.908;2023-03-20T04:20:24;98541.50;;;9.48;84.29
64876;BME280;51369;49.862;9.908;2023-03-20T04:22:49;98535.19;;;9.49;83.88
64876;BME280;51369;49.862;9.908;2023-03-20T04:25:22;98536.13;;;9.48;83.89
64876;BME280;51369;49.862;9.908;2023-03-20T04:27:51;98552.19;;;9.51;83.40
64876;BME280;51369;49.862;9.908;2023-03-20T04:30:32;98552.19;;;9.51;84.02
64876;BME280;51369;49.862;9.908;2023-03-20T04:33:20;98559.31;;;9.52;83.19
64876;BME280;51369;49.862;9.908;2023-03-20T04:36:12;98554.75;;;9.54;83.48
64876;BME280;51369;49.862;9.908;2023-03-20T04:38:39;98557.47;;;9.54;83.12
64876;BME280;51369;49.862;9.908;2023-03-20T04:41:04;98553.00;;;9.53;83.29
64876;BME280;51369;49.862;9.908;2023-03-20T04:43:30;98547.56;;;9.55;83.55
64876;BME280;51369;49.862;9.908;2023-03-20T04:45:57;98546.69;;;9.54;83.21
64876;BME280;51369;49.862;9.908;2023-03-20T04:48:22;98554.75;;;9.54;83.17
64876;BME280;51369;49.862;9.908;2023-03-20T04:50:48;98552.94;;;9.55;83.55
64876;BME280;51369;49.862;9.908;2023-03-20T04:53:17;98560.97;;;9.56;83.31
64876;BME280;51369;49.862;9.908;2023-03-20T04:55:45;98551.13;;;9.55;83.49
64876;BME280;51369;49.862;9.908;2023-03-20T04:58:11;98560.97;;;9.56;82.80
64876;BME280;51369;49.862;9.908;2023-03-20T05:00:38;98562.75;;;9.57;83.94
64876;BME280;51369;49.862;9.908;2023-03-20T05:03:04;98565.38;;;9.59;83.94
64876;BME280;51369;49.862;9.908;2023-03-20T05:05:29;98572.47;;;9.61;83.51
64876;BME280;51369;49.862;9.908;2023-03-20T05:07:55;98569.72;;;9.63;83.61
64876;BME280;51369;49.862;9.908;2023-03-20T05:10:32;98573.19;;;9.66;83.45
64876;BME280;51369;49.862;9.908;2023-03-20T05:13:04;98575.84;;;9.68;83.68
64876;BME280;51369;49.862;9.908;2023-03-20T05:16:01;98582.00;;;9.71;83.69
64876;BME280;51369;49.862;9.908;2023-03-20T05:18:37;98587.34;;;9.73;83.77
64876;BME280;51369;49.862;9.908;2023-03-20T05:21:14;98582.78;;;9.75;83.54
64876;BME280;51369;49.862;9.908;2023-03-20T05:24:07;98579.13;;;9.76;83.06
64876;BME280;51369;49.862;9.908;2023-03-20T05:26:33;98579.97;;;9.78;83.98
64876;BME280;51369;49.862;9.908;2023-03-20T05:29:25;98577.16;;;9.81;83.28
64876;BME280;51369;49.862;9.908;2023-03-20T05:32:03;98582.50;;;9.83;83.88
64876;BME280;51369;49.862;9.908;2023-03-20T05:34:35;98583.38;;;9.83;84.06
64876;BME280;51369;49.862;9.908;2023-03-20T05:37:09;98594.03;;;9.86;83.53
64876;BME280;51369;49.862;9.908;2023-03-20T05:39:38;98584.13;;;9.87;83.20
64876;BME280;51369;49.862;9.908;2023-03-20T05:42:18;98585.03;;;9.87;83.79
64876;BME280;51369;49.862;9.908;2023-03-20T05:45:02;98586.78;;;9.88;83.00
64876;BME280;51369;49.862;9.908;2023-03-20T05:47:46;98586.72;;;9.90;83.64
64876;BME280;51369;49.862;9.908;2023-03-20T05:50:30;98595.63;;;9.92;83.51
64876;BME280;51369;49.862;9.908;2023-03-20T05:53:13;98594.69;;;9.93;83.33
64876;BME280;51369;49.862;9.908;2023-03-20T05:56:05;98594.59;;;9.96;83.52
64876;BME280;51369;49.862;9.908;2023-03-20T05:58:39;98593.59;;;9.98;83.00
64876;BME280;51369;49.862;9.908;2023-03-20T06:01:35;98598.00;;;10.01;82.88
64876;BME280;51369;49.862;9.908;2023-03-20T06:04:06;98601.53;;;10.03;82.99
64876;BME280;51369;49.862;9.908;2023-03-20T06:06:54;98598.66;;;10.07;82.98
64876;BME280;51369;49.862;9.908;2023-03-20T06:09:20;98604.00;;;10.09;83.85
64876;BME280;51369;49.862;9.908;2023-03-20T06:11:45;98601.19;;;10.12;83.54
64876;BME280;51369;49.862;9.908;2023-03-20T06:14:14;98602.88;;;10.15;83.23
64876;BME280;51369;49.862;9.908;2023-03-20T06:16:43;98598.25;;;10.18;82.78
64876;BME280;51369;49.862;9.908;2023-03-20T06:19:09;98595.47;;;10.21;83.38
64876;BME280;51369;49.862;9.908;2023-03-20T06:21:35;98594.41;;;10.25;83.48
64876;BME280;51369;49.862;9.908;2023-03-20T06:24:01;98596.94;;;10.30;83.84
64876;BME280;51369;49.862;9.908;2023-03-20T06:26:27;98595.94;;;10.32;83.10
64876;BME280;51369;49.862;9.908;2023-03-20T06:28:59;98596.66;;;10.37;82.98
64876;BME280;51369;49.862;9.908;2023-03-20T06:31:24;98599.19;;;10.40;83.23
64876;BME280;51369;49.862;9.908;2023-03-20T06:33:50;98607.19;;;10.43;83.44
64876;BME280;51369;49.862;9.908;2023-03-20T06:36:17;98603.44;;;10.48;82.77
64876;BME280;51369;49.862;9.908;2023-03-20T06:38:43;98600.59;;;10.51;83.68
64876;BME280;51369;49.862;9.908;2023-03-20T06:41:12;98596.91;;;10.53;82.65
64876;BME280;51369;49.862;9.908;2023-03-20T06:43:38;98587.81;;;10.56;82.61
64876;BME280;51369;49.862;9.908;2023-03-20T06:46:04;98589.50;;;10.58;82.67
64876;BME280;51369;49.862;9.908;2023-03-20T06:48:31;98596.53;;;10.62;82.58
64876;BME280;51369;49.862;9.908;2023-03-20T06:50:58;98596.50;;;10.64;83.14
64876;BME280;51369;49.862;9.908;2023-03-20T06:53:30;98598.13;;;10.68;82.54
64876;BME280;51369;49.862;9.908;2023-03-20T06:56:02;98603.34;;;10.72;83.11
64876;BME280;51369;49.862;9.908;2023-03-20T06:58:28;98603.22;;;10.75;82.36
64876;BME280;51369;49.862;9.908;2023-03-20T07:00:53;98594.13;;;10.78;82.32
64876;BME280;51369;49.862;9.908;2023-03-20T07:03:19;98605.69;;;10.82;82.92
64876;BME280;51369;49.862;9.908;2023-03-20T07:05:47;98610.09;;;10.84;82.59
64876;BME280;51369;49.862;9.908;2023-03-20T07:08:12;98616.25;;;10.88;83.18
64876;BME280;51369;49.862;9.908;2023-03-20T07:10:39;98614.34;;;10.90;81.89
64876;BME280;51369;49.862;9.908;2023-03-20T07:13:05;98617.88;;;10.92;82.05
64876;BME280;51369;49.862;9.908;2023-03-20T07:15:31;98615.13;;;10.93;81.86
64876;BME280;51369;49.862;9.908;2023-03-20T07:17:57;98617.75;;;10.95;81.94
64876;BME280;51369;49.862;9.908;2023-03-20T07:20:24;98612.28;;;10.96;82.11
64876;BME280;51369;49.862;9.908;2023-03-20T07:22:50;98608.59;;;10.99;82.23
64876;BME280;51369;49.862;9.908;2023-03-20T07:25:24;98612.03;;;11.02;82.40
64876;BME280;51369;49.862;9.908;2023-03-20T07:27:50;98606.44;;;11.07;82.17
64876;BME280;51369;49.862;9.908;2023-03-20T07:30:19;98609.78;;;11.14;82.45
64876;BME280;51369;49.862;9.908;2023-03-20T07:32:45;98612.22;;;11.20;82.49
64876;BME280;51369;49.862;9.908;2023-03-20T07:35:12;98613.72;;;11.27;82.45
64876;BME280;51369;49.862;9.908;2023-03-20T07:37:40;98623.34;;;11.34;82.56
64876;BME280;51369;49.862;9.908;2023-03-20T07:40:08;98620.38;;;11.40;81.89
64876;BME280;51369;49.862;9.908;2023-03-20T07:42:43;98630.00;;;11.47;82.45
64876;BME280;51369;49.862;9.908;2023-03-20T07:45:12;98619.88;;;11.52;81.92
64876;BME280;51369;49.862;9.908;2023-03-20T07:47:43;98619.59;;;11.58;81.59
64876;BME280;51369;49.862;9.908;2023-03-20T07:50:10;98622.03;;;11.64;81.15
64876;BME280;51369;49.862;9.908;2023-03-20T07:52:35;98627.13;;;11.72;81.42
64876;BME280;51369;49.862;9.908;2023-03-20T07:55:01;98629.59;;;11.78;81.05
64876;BME280;51369;49.862;9.908;2023-03-20T07:57:26;98628.53;;;11.82;80.88
64876;BME280;51369;49.862;9.908;2023-03-20T07:59:52;98634.59;;;11.87;80.47
64876;BME280;51369;49.862;9.908;2023-03-20T08:02:17;98635.28;;;11.92;80.47
64876;BME280;51369;49.862;9.908;2023-03-20T08:04:43;98635.16;;;11.95;79.69
64876;BME280;51369;49.862;9.908;2023-03-20T08:07:09;98635.97;;;11.97;79.66
64876;BME280;51369;49.862;9.908;2023-03-20T08:09:35;98639.34;;;12.02;79.15
64876;BME280;51369;49.862;9.908;2023-03-20T08:12:00;98637.44;;;12.04;79.33
64876;BME280;51369;49.862;9.908;2023-03-20T08:14:26;98641.78;;;12.09;78.46
64876;BME280;51369;49.862;9.908;2023-03-20T08:16:51;98640.84;;;12.10;78.94
64876;BME280;51369;49.862;9.908;2023-03-20T08:19:17;98649.84;;;12.10;79.03
64876;BME280;51369;49.862;9.908;2023-03-20T08:21:42;98648.94;;;12.10;77.89
64876;BME280;51369;49.862;9.908;2023-03-20T08:24:08;98650.78;;;12.09;78.21
64876;BME280;51369;49.862;9.908;2023-03-20T08:26:34;98657.13;;;12.08;77.67
64876;BME280;51369;49.862;9.908;2023-03-20T08:28:59;98656.19;;;12.09;77.89
64876;BME280;51369;49.862;9.908;2023-03-20T08:31:25;98650.84;;;12.08;77.75
64876;BME280;51369;49.862;9.908;2023-03-20T08:33:51;98654.28;;;12.11;78.65
64876;BME280;51369;49.862;9.908;2023-03-20T08:36:17;98652.41;;;12.13;77.62
64876;BME280;51369;49.862;9.908;2023-03-20T08:38:45;98648.56;;;12.17;77.84
64876;BME280;51369;49.862;9.908;2023-03-20T08:41:11;98645.72;;;12.20;78.19
64876;BME280;51369;49.862;9.908;2023-03-20T08:43:36;98647.41;;;12.23;77.88
64876;BME280;51369;49.862;9.908;2023-03-20T08:46:02;98643.63;;;12.27;78.06
64876;BME280;51369;49.862;9.908;2023-03-20T08:48:28;98657.78;;;12.33;77.80
64876;BME280;51369;49.862;9.908;2023-03-20T08:50:53;98653.84;;;12.41;77.89
64876;BME280;51369;49.862;9.908;2023-03-20T08:53:19;98659.78;;;12.49;77.86
64876;BME280;51369;49.862;9.908;2023-03-20T08:55:49;98655.03;;;12.54;77.80
64876;BME280;51369;49.862;9.908;2023-03-20T08:58:16;98660.97;;;12.62;77.60
64876;BME280;51369;49.862;9.908;2023-03-20T09:00:41;98663.31;;;12.69;77.52
64876;BME280;51369;49.862;9.908;2023-03-20T09:03:14;98662.16;;;12.75;77.00
64876;BME280;51369;49.862;9.908;2023-03-20T09:05:44;98663.78;;;12.79;76.28
64876;BME280;51369;49.862;9.908;2023-03-20T09:08:10;98667.22;;;12.83;76.07
64876;BME280;51369;49.862;9.908;2023-03-20T09:10:36;98664.44;;;12.84;75.97
64876;BME280;51369;49.862;9.908;2023-03-20T09:13:01;98661.59;;;12.87;75.95
64876;BME280;51369;49.862;9.908;2023-03-20T09:15:27;98652.44;;;12.90;75.45
64876;BME280;51369;49.862;9.908;2023-03-20T09:17:52;98647.75;;;12.93;75.95
64876;BME280;51369;49.862;9.908;2023-03-20T09:20:18;98656.53;;;12.98;76.29
64876;BME280;51369;49.862;9.908;2023-03-20T09:22:44;98645.47;;;13.03;75.31
64876;BME280;51369;49.862;9.908;2023-03-20T09:25:10;98640.56;;;13.11;75.09
64876;BME280;51369;49.862;9.908;2023-03-20T09:27:36;98648.41;;;13.17;75.24
64876;BME280;51369;49.862;9.908;2023-03-20T09:30:02;98652.59;;;13.24;75.37
64876;BME280;51369;49.862;9.908;2023-03-20T09:32:27;98654.13;;;13.30;74.42
64876;BME280;51369;49.862;9.908;2023-03-20T09:34:54;98666.56;;;13.34;75.28
64876;BME280;51369;49.862;9.908;2023-03-20T09:37:19;98663.94;;;13.32;73.93
64876;BME280;51369;49.862;9.908;2023-03-20T09:39:44;98659.53;;;13.30;73.59
64876;BME280;51369;49.862;9.908;2023-03-20T09:42:26;98662.41;;;13.27;73.85
64876;BME280;51369;49.862;9.908;2023-03-20T09:48:04;98672.53;;;13.23;74.22
64876;BME280;51369;49.862;9.908;2023-03-20T09:50:56;98673.63;;;13.19;73.76
64876;BME280;51369;49.862;9.908;2023-03-20T09:53:30;98677.28;;;13.18;72.95
64876;BME280;51369;49.862;9.908;2023-03-20T09:55:59;98681.91;;;13.16;73.65
64876;BME280;51369;49.862;9.908;2023-03-20T09:58:31;98684.72;;;13.13;73.75
64876;BME280;51369;49.862;9.908;2023-03-20T10:01:00;98682.03;;;13.13;74.17
64876;BME280;51369;49.862;9.908;2023-03-20T10:03:31;98686.50;;;13.14;73.43
64876;BME280;51369;49.862;9.908;2023-03-20T10:06:10;98673.78;;;13.16;73.26
64876;BME280;51369;49.862;9.908;2023-03-20T10:08:37;98670.03;;;13.19;73.25
64876;BME280;51369;49.862;9.908;2023-03-20T10:11:13;98681.75;;;13.19;73.14
64876;BME280;51369;49.862;9.908;2023-03-20T10:19:42;98680.00;;;13.18;74.03
64876;BME280;51369;49.862;9.908;2023-03-20T10:22:22;98683.66;;;13.17;74.05
64876;BME280;51369;49.862;9.908;2023-03-20T10:24:59;98683.66;;;13.17;73.68
64876;BME280;51369;49.862;9.908;2023-03-20T10:27:51;98682.91;;;13.14;74.05
64876;BME280;51369;49.862;9.908;2023-03-20T10:35:49;98681.84;;;13.18;74.47
64876;BME280;51369;49.862;9.908;2023-03-20T10:38:29;98679.63;;;13.26;74.04
64876;BME280;51369;49.862;9.908;2023-03-20T10:40:58;98679.19;;;13.35;73.63
64876;BME280;51369;49.862;9.908;2023-03-20T10:43:34;98674.50;;;13.39;74.04
64876;BME280;51369;49.862;9.908;2023-03-20T10:46:13;98675.13;;;13.44;73.61
64876;BME280;51369;49.862;9.908;2023-03-20T10:49:01;98671.16;;;13.51;73.60
64876;BME280;51369;49.862;9.908;2023-03-20T10:51:37;98662.50;;;13.61;73.09
64876;BME280;51369;49.862;9.908;2023-03-20T10:54:09;98663.78;;;13.72;73.33
64876;BME280;51369;49.862;9.908;2023-03-20T10:56:43;98668.81;;;13.79;72.91
64876;BME280;51369;49.862;9.908;2023-03-20T10:59:26;98672.19;;;13.84;72.81
64876;BME280;51369;49.862;9.908;2023-03-20T11:01:52;98672.63;;;13.92;72.45
64876;BME280;51369;49.862;9.908;2023-03-20T11:04:18;98666.00;;;13.98;72.61
64876;BME280;51369;49.862;9.908;2023-03-20T11:09:19;98665.22;;;14.13;71.92
64876;BME280;51369;49.862;9.908;2023-03-20T11:11:47;98663.94;;;14.20;71.96
64876;BME280;51369;49.862;9.908;2023-03-20T11:14:19;98665.53;;;14.24;71.30
64876;BME280;51369;49.862;9.908;2023-03-20T11:16:53;98658.97;;;14.28;70.82
64876;BME280;51369;49.862;9.908;2023-03-20T11:19:20;98667.91;;;14.30;71.06
64876;BME280;51369;49.862;9.908;2023-03-20T11:21:49;98669.75;;;14.30;70.37
64876;BME280;51369;49.862;9.908;2023-03-20T11:24:39;98660.00;;;14.26;70.31
64876;BME280;51369;49.862;9.908;2023-03-20T11:27:14;98655.28;;;14.29;70.22
64876;BME280;51369;49.862;9.908;2023-03-20T11:29:42;98662.47;;;14.30;70.24
64876;BME280;51369;49.862;9.908;2023-03-20T11:32:31;98659.06;;;14.27;69.91
64876;BME280;51369;49.862;9.908;2023-03-20T11:37:45;98654.25;;;14.32;69.95
64876;BME280;51369;49.862;9.908;2023-03-20T11:42:37;98649.78;;;14.31;70.57
64876;BME280;51369;49.862;9.908;2023-03-20T11:45:05;98655.13;;;14.32;69.92
64876;BME280;51369;49.862;9.908;2023-03-20T11:47:33;98646.81;;;14.36;70.05
64876;BME280;51369;49.862;9.908;2023-03-20T11:50:02;98643.81;;;14.42;69.92
64876;BME280;51369;49.862;9.908;2023-03-20T11:52:32;98642.59;;;14.47;70.12
64876;BME280;51369;49.862;9.908;2023-03-20T11:55:00;98651.53;;;14.49;70.37
64876;BME280;51369;49.862;9.908;2023-03-20T11:57:35;98643.47;;;14.48;70.02
64876;BME280;51369;49.862;9.908;2023-03-20T12:02:40;98646.53;;;14.42;69.20
64876;BME280;51369;49.862;9.908;2023-03-20T12:07:53;98635.88;;;14.37;69.39
64876;BME280;51369;49.862;9.908;2023-03-20T12:10:24;98646.66;;;14.39;69.35
64876;BME280;51369;49.862;9.908;2023-03-20T12:13:03;98645.69;;;14.40;69.72
64876;BME280;51369;49.862;9.908;2023-03-20T12:15:33;98645.47;;;14.44;69.76
64876;BME280;51369;49.862;9.908;2023-03-20T12:20:37;98645.31;;;14.47;69.77
64876;BME280;51369;49.862;9.908;2023-03-20T12:25:51;98641.81;;;14.45;69.75
64876;BME280;51369;49.862;9.908;2023-03-20T12:31:11;98640.84;;;14.46;69.31
64876;BME280;51369;49.862;9.908;2023-03-20T12:33:56;98636.91;;;14.52;69.44
64876;BME280;51369;49.862;9.908;2023-03-20T12:38:56;98626.97;;;14.68;69.50
64876;BME280;51369;49.862;9.908;2023-03-20T12:41:28;98633.47;;;14.81;68.71
64876;BME280;51369;49.862;9.908;2023-03-20T12:44:09;98627.25;;;14.95;68.62
64876;BME280;51369;49.862;9.908;2023-03-20T12:49:20;98617.63;;;15.21;67.43
64876;BME280;51369;49.862;9.908;2023-03-20T12:57:25;98605.16;;;15.33;66.35
64876;BME280;51369;49.862;9.908;2023-03-20T13:00:06;98610.41;;;15.36;66.73
64876;BME280;51369;49.862;9.908;2023-03-20T13:05:32;98594.44;;;15.45;66.23
64876;BME280;51369;49.862;9.908;2023-03-20T13:11:10;98591.25;;;15.53;65.39
64876;BME280;51369;49.862;9.908;2023-03-20T13:25:02;98578.31;;;16.16;65.78
64876;BME280;51369;49.862;9.908;2023-03-20T13:27:51;98572.38;;;16.38;65.20
64876;BME280;51369;49.862;9.908;2023-03-20T13:30:40;98569.56;;;16.54;63.86
64876;BME280;51369;49.862;9.908;2023-03-20T13:36:31;98568.03;;;16.78;63.91
64876;BME280;51369;49.862;9.908;2023-03-20T13:39:15;98553.88;;;17.00;62.70
64876;BME280;51369;49.862;9.908;2023-03-20T13:41:43;98552.94;;;17.14;61.93
64876;BME280;51369;49.862;9.908;2023-03-20T13:44:11;98562.69;;;17.18;62.10
64876;BME280;51369;49.862;9.908;2023-03-20T13:47:12;98543.44;;;17.07;61.82
64876;BME280;51369;49.862;9.908;2023-03-20T13:52:46;98537.50;;;17.00;61.57
64876;BME280;51369;49.862;9.908;2023-03-20T13:55:29;98538.00;;;16.92;60.35
64876;BME280;51369;49.862;9.908;2023-03-20T14:03:37;98541.63;;;16.50;60.16
64876;BME280;51369;49.862;9.908;2023-03-20T14:06:46;98543.69;;;16.33;60.75
64876;BME280;51369;49.862;9.908;2023-03-20T14:09:37;98541.03;;;16.17;61.15
64876;BME280;51369;49.862;9.908;2023-03-20T14:12:06;98535.19;;;16.09;61.35
64876;BME280;51369;49.862;9.908;2023-03-20T14:14:58;98541.50;;;15.95;61.40
64876;BME280;51369;49.862;9.908;2023-03-20T14:17:26;98538.78;;;15.95;61.67
64876;BME280;51369;49.862;9.908;2023-03-20T14:19:54;98535.19;;;15.94;61.82
64876;BME280;51369;49.862;9.908;2023-03-20T14:22:23;98535.00;;;15.98;61.38
64876;BME280;51369;49.862;9.908;2023-03-20T14:24:57;98533.81;;;16.02;61.29
64876;BME280;51369;49.862;9.908;2023-03-20T14:27:26;98527.22;;;16.06;61.59
64876;BME280;51369;49.862;9.908;2023-03-20T14:29:52;98528.69;;;16.11;61.19
64876;BME280;51369;49.862;9.908;2023-03-20T14:34:45;98521.41;;;16.26;60.86
64876;BME280;51369;49.862;9.908;2023-03-20T14:40:02;98513.91;;;16.44;61.71
64876;BME280;51369;49.862;9.908;2023-03-20T14:50:12;98510.09;;;16.60;60.99
64876;BME280;51369;49.862;9.908;2023-03-20T14:55:45;98505.31;;;16.50;59.40
64876;BME280;51369;49.862;9.908;2023-03-20T14:58:35;98505.03;;;16.40;59.69
64876;BME280;51369;49.862;9.908;2023-03-20T15:01:06;98515.94;;;16.40;58.98
64876;BME280;51369;49.862;9.908;2023-03-20T15:03:33;98501.53;;;16.38;61.04
64876;BME280;51369;49.862;9.908;2023-03-20T15:06:04;98512.06;;;16.30;60.46
64876;BME280;51369;49.862;9.908;2023-03-20T15:08:34;98514.38;;;16.22;60.61
64876;BME280;51369;49.862;9.908;2023-03-20T15:11:05;98511.47;;;16.11;60.15
64876;BME280;51369;49.862;9.908;2023-03-20T15:13:33;98510.09;;;16.04;60.20
64876;BME280;51369;49.862;9.908;2023-03-20T15:18:36;98514.16;;;15.82;59.80
64876;BME280;51369;49.862;9.908;2023-03-20T15:21:02;98500.91;;;15.76;60.00
64876;BME280;51369;49.862;9.908;2023-03-20T15:23:27;98509.38;;;15.72;60.26
64876;BME280;51369;49.862;9.908;2023-03-20T15:25:53;98504.31;;;15.66;59.78
64876;BME280;51369;49.862;9.908;2023-03-20T15:28:28;98499.34;;;15.58;60.73
64876;BME280;51369;49.862;9.908;2023-03-20T15:30:56;98512.25;;;15.54;61.30
64876;BME280;51369;49.862;9.908;2023-03-20T15:33:28;98501.03;;;15.45;60.26
64876;BME280;51369;49.862;9.908;2023-03-20T15:35:55;98502.88;;;15.44;61.42
64876;BME280;51369;49.862;9.908;2023-03-20T15:38:21;98503.34;;;15.37;60.23
64876;BME280;51369;49.862;9.908;2023-03-20T15:40:47;98506.16;;;15.35;61.19
64876;BME280;51369;49.862;9.908;2023-03-20T15:43:25;98510.22;;;15.28;61.45